Neuse, North Carolina
Current Conditions -  °F | °C
As of 2:51 PM on Friday 19 Dec 2014 (Local Time) from KRDU Reporting Station
Broken Clouds Broken Clouds  
Wind Chill: 52°   Ceiling: 25000
Heat Index: 52°   Visibility: 10mi
Dew Point: 25°   Wind: 6mph
Humidity: 35%   Direction: 280°W
Pressure: 30.13"   Gusts: NA
Location:  35.8146°N, 78.5826°W
Report Text: KRDU 191951Z 28005KT 10SM BKN250 11/M04 A3013 RMK AO2 SLP204 T01111039
Loading
Personal Weather Stations






























Interactive Weather Map New forecast layout! Learn more

10-Day Weather Forecast

Advertisements
Track Severe Weather on mobile